Flueir Airport


Codes: BIFL/
Name: Flueir Airport
City: Flueir
Country: Iceland
Elevation: 270 ft.

Photos at Flueir Airport


   Photos courtesy of SpottingLog. You can add your own sightings and photos by signing up for a free trial today.



No photos found.

Weather at Flueir Airport


Time (UTC)DescriptionTempratureWindCloud coverageVisibilityPressureHumidity
13-Jun-2024 03:00Light Rain9°C20 mph, E100%10000m1001hPa79%
13-Jun-2024 06:00Light Rain9°C22 mph, E100%10000m1001hPa78%
13-Jun-2024 09:00Light Rain10°C25 mph, E100%10000m1000hPa74%
13-Jun-2024 12:00Light Rain12°C25 mph, E100%10000m1001hPa67%
13-Jun-2024 15:00Light Rain12°C20 mph, E100%10000m1003hPa66%
13-Jun-2024 18:00Light Rain11°C18 mph, E100%10000m1005hPa71%
13-Jun-2024 21:00Light Rain11°C7 mph, NE99%10000m1007hPa71%
14-Jun-2024 00:00Overcast Clouds10°C7 mph, NE100%10000m1009hPa72%
14-Jun-2024 03:00Overcast Clouds9°C4 mph, NE99%10000m1011hPa74%
14-Jun-2024 06:00Broken Clouds10°C0 mph, SE79%10000m1012hPa69%
14-Jun-2024 09:00Few Clouds13°C2 mph, SW23%10000m1012hPa59%
14-Jun-2024 12:00Few Clouds16°C4 mph, S16%10000m1012hPa54%
14-Jun-2024 15:00Broken Clouds15°C11 mph, SW84%10000m1012hPa64%
14-Jun-2024 18:00Overcast Clouds15°C11 mph, SW85%10000m1012hPa64%
14-Jun-2024 21:00Broken Clouds13°C11 mph, S52%10000m1013hPa73%
15-Jun-2024 00:00Scattered Clouds8°C4 mph, S42%10000m1014hPa91%
15-Jun-2024 03:00Broken Clouds7°C2 mph, S57%10000m1014hPa93%
15-Jun-2024 06:00Scattered Clouds9°C2 mph, SW43%10000m1015hPa86%
15-Jun-2024 09:00Few Clouds13°C2 mph, SW21%10000m1015hPa70%
15-Jun-2024 12:00Few Clouds18°C2 mph, SW21%10000m1014hPa52%
15-Jun-2024 15:00Broken Clouds20°C9 mph, SW68%10000m1014hPa45%
15-Jun-2024 18:00Overcast Clouds18°C9 mph, SW85%10000m1014hPa55%
15-Jun-2024 21:00Broken Clouds17°C4 mph, S84%10000m1014hPa60%
16-Jun-2024 00:00Broken Clouds12°C2 mph, SE53%10000m1015hPa80%
16-Jun-2024 03:00Few Clouds11°C2 mph, N22%10000m1015hPa82%
16-Jun-2024 06:00Few Clouds13°C2 mph, N24%10000m1014hPa70%
16-Jun-2024 09:00Overcast Clouds16°C4 mph, NW87%10000m1014hPa55%
16-Jun-2024 12:00Overcast Clouds18°C7 mph, NW93%10000m1013hPa47%
16-Jun-2024 15:00Broken Clouds20°C11 mph, NW63%10000m1013hPa42%
16-Jun-2024 18:00Broken Clouds19°C11 mph, N70%10000m1013hPa42%
16-Jun-2024 21:00Overcast Clouds16°C2 mph, NE85%10000m1014hPa55%
17-Jun-2024 00:00Light Rain12°C2 mph, E92%10000m1015hPa75%
17-Jun-2024 03:00Light Rain10°C2 mph, S100%10000m1015hPa85%
17-Jun-2024 06:00Light Rain9°C4 mph, NE100%10000m1016hPa71%
17-Jun-2024 09:00Light Rain9°C7 mph, E99%10000m1017hPa63%
17-Jun-2024 12:00Light Rain13°C4 mph, SW89%10000m1017hPa49%
17-Jun-2024 15:00Light Rain14°C4 mph, W84%10000m1017hPa48%
17-Jun-2024 18:00Light Rain12°C7 mph, S84%10000m1018hPa62%
17-Jun-2024 21:00Light Rain10°C2 mph, S75%10000m1019hPa65%
18-Jun-2024 00:00Light Rain6°C4 mph, N46%10000m1019hPa74%